To NAV CANADA Home Page Login to a new session Search on AWWS site Feedback and Comments Disclaimer Vers la page française équivalente Tips FAQ What's new on the site To the Forecasts and Observations / NOTAM section To "File a Flight Plan" website Publications and other links Update of the User's profile FIC Telephone Numbers My Weather Data Folder Route Weather Data Regional Weather Data Local Weather Data To the Forecasts and Observations / NOTAM section
Request Generated 02/08/2016 at 03:39:37 UTC . Weather information available at that time is displayed.

METAR/TAF

SCHEFFERVILLE/QC    (show WxCam)

METAR CYKL 080300Z AUTO 32008KT 9SM CLR M29/M32 A3012 RMK SLP273=
METAR CYKL 080200Z AUTO 32008KT 9SM FEW018 M28/M32 A3009 RMK SLP269=
SPECI CYKL 080144Z AUTO 32008KT 9SM SCT018 M28/M32 A3008 RMK SLP270=
METAR CYKL 080100Z AUTO 31008KT 9SM OVC018 M27/M31 A3007 RMK SLP265=

TAF CYKL 080141Z 0802/0814 30008KT P6SM SCT020 TEMPO 0802/0814 BKN020
PROB30 0803/0813 11/2SM IC
RMK FCST BASED ON AUTO OBS. NXT FCST BY 080800Z=
Your time UTC time
Weather data provided by Environment Canada and NAV CANADA